Date,TemperatureHighF,TemperatureAvgF,TemperatureLowF,DewpointHighF,DewpointAvgF,DewpointLowF,HumidityHigh,HumidityAvg,HumidityLow,PressureMaxIn,PressureMinIn,WindSpeedMaxMPH,WindSpeedAvgMPH,GustSpeedMaxMPH,PrecipitationSumIn
2013-3-1,34,31,27,32,32,32,79,56,42,30.07,29.86,15,5,15,0.00
2013-3-2,28,25,0,32,22,0,73,55,39,30.07,29.56,13,5,13,0.04
2013-3-3,27,24,0,19,10,4,81,58,42,29.59,29.53,14,5,14,0.00
2013-3-4,35,26,0,12,8,6,56,46,34,29.74,29.56,23,8,23,0.00
2013-3-5,36,28,23,20,13,8,86,54,34,29.77,29.68,11,4,11,0.00
2013-3-6,42,34,0,29,23,16,94,64,47,29.83,29.65,13,4,13,0.00
2013-3-7,40,35,31,30,23,12,84,63,34,29.97,29.83,11,3,11,0.79
2013-3-8,49,36,30,22,13,6,65,41,21,30.06,29.94,15,4,15,0.00
2013-3-9,59,36,25,28,21,12,92,57,20,30.09,29.91,8,2,8,4.17
2013-3-10,70,51,30,17,11,6,57,23,12,29.91,29.65,15,5,20,0.00
2013-3-11,59,55,52,33,12,7,44,18,14,29.65,29.32,22,6,22,0.00
2013-3-12,54,41,36,44,24,16,81,53,38,29.59,29.35,23,8,23,0.00
2013-3-13,44,33,23,28,16,7,86,51,29,29.62,29.50,29,9,29,0.00
2013-3-14,36,26,20,15,0,-8,72,33,17,29.74,29.62,29,11,29,0.00
2013-3-15,44,32,25,28,13,1,83,46,26,29.74,29.38,27,8,27,0.00
2013-3-16,30,25,17,16,7,2,79,47,32,29.65,29.56,14,4,14,0.00
2013-3-17,35,25,14,19,5,-11,81,45,20,30.03,29.65,15,4,15,0.00
2013-3-18,35,26,12,27,8,-4,81,50,20,30.03,29.41,22,5,22,0.16
2013-3-19,40,34,27,29,16,5,81,51,31,29.50,29.35,31,8,31,7.87
2013-3-20,38,29,24,16,9,-1,69,44,22,29.50,29.47,25,8,25,0.79
2013-3-21,37,27,20,19,6,-7,65,44,20,29.50,29.38,22,7,22,0.00
2013-3-22,36,30,26,24,17,10,85,59,40,29.59,29.41,20,8,20,0.00
2013-3-23,42,33,29,23,14,7,73,45,29,29.68,29.56,22,7,22,0.79
2013-3-24,44,33,25,23,14,4,87,48,23,29.68,29.44,12,4,12,0.00
2013-3-25,42,36,30,25,17,12,78,48,31,29.44,29.32,16,4,16,0.00
2013-3-26,51,39,30,26,18,9,80,46,21,29.62,29.41,13,4,28,0.00
2013-3-27,51,38,33,32,20,13,84,52,26,29.74,29.59,18,7,18,0.00
2013-3-28,50,40,34,29,22,6,79,54,20,29.88,29.71,15,6,15,0.00
2013-3-29,56,43,36,25,18,4,62,41,15,29.88,29.80,17,6,17,0.00
2013-3-30,56,41,31,21,12,0,56,33,15,29.88,29.71,14,4,14,3.90
2013-3-31,61,46,35,38,18,5,76,38,14,29.71,29.29,100,6,100,0.00